sensor_id;sensor_type;location;lat;lon;timestamp;pressure;altitude;pressure_sealevel;temperature
71630;BMP280;59479;51.902;8.212;2022-07-23T00:02:19;101203.72;;;19.60
71630;BMP280;59479;51.902;8.212;2022-07-23T00:04:44;101198.69;;;19.57
71630;BMP280;59479;51.902;8.212;2022-07-23T00:07:10;101199.59;;;19.56
71630;BMP280;59479;51.902;8.212;2022-07-23T00:09:35;101211.63;;;19.51
71630;BMP280;59479;51.902;8.212;2022-07-23T00:12:00;101214.19;;;19.51
71630;BMP280;59479;51.902;8.212;2022-07-23T00:14:25;101213.44;;;19.48
71630;BMP280;59479;51.902;8.212;2022-07-23T00:16:51;101223.66;;;19.46
71630;BMP280;59479;51.902;8.212;2022-07-23T00:19:16;101223.66;;;19.46
71630;BMP280;59479;51.902;8.212;2022-07-23T00:21:42;101235.59;;;19.46
71630;BMP280;59479;51.902;8.212;2022-07-23T00:24:07;101240.72;;;19.44
71630;BMP280;59479;51.902;8.212;2022-07-23T00:26:32;101241.50;;;19.46
71630;BMP280;59479;51.902;8.212;2022-07-23T00:28:58;101241.53;;;19.45
71630;BMP280;59479;51.902;8.212;2022-07-23T00:31:23;101253.47;;;19.44
71630;BMP280;59479;51.902;8.212;2022-07-23T00:33:48;101263.66;;;19.44
71630;BMP280;59479;51.902;8.212;2022-07-23T00:36:13;101263.69;;;19.43
71630;BMP280;59479;51.902;8.212;2022-07-23T00:38:39;101273.94;;;19.41
71630;BMP280;59479;51.902;8.212;2022-07-23T00:41:04;101266.28;;;19.41
71630;BMP280;59479;51.902;8.212;2022-07-23T00:43:30;101272.25;;;19.40
71630;BMP280;59479;51.902;8.212;2022-07-23T00:45:55;101269.72;;;19.39
71630;BMP280;59479;51.902;8.212;2022-07-23T00:48:21;101278.28;;;19.38
71630;BMP280;59479;51.902;8.212;2022-07-23T00:50:46;101280.00;;;19.38
71630;BMP280;59479;51.902;8.212;2022-07-23T00:53:12;101275.81;;;19.35
71630;BMP280;59479;51.902;8.212;2022-07-23T00:55:38;101268.97;;;19.36
71630;BMP280;59479;51.902;8.212;2022-07-23T00:58:04;101250.28;;;19.37
71630;BMP280;59479;51.902;8.212;2022-07-23T01:00:30;101254.50;;;19.38
71630;BMP280;59479;51.902;8.212;2022-07-23T01:02:55;101249.34;;;19.39
71630;BMP280;59479;51.902;8.212;2022-07-23T01:05:20;101252.72;;;19.41
71630;BMP280;59479;51.902;8.212;2022-07-23T01:07:51;101244.44;;;19.32
71630;BMP280;59479;51.902;8.212;2022-07-23T01:10:16;101246.97;;;19.33
71630;BMP280;59479;51.902;8.212;2022-07-23T01:13:08;101236.75;;;19.35
71630;BMP280;59479;51.902;8.212;2022-07-23T01:15:35;101237.59;;;19.34
71630;BMP280;59479;51.902;8.212;2022-07-23T01:18:02;101230.84;;;19.33
71630;BMP280;59479;51.902;8.212;2022-07-23T01:20:28;101220.69;;;19.31
71630;BMP280;59479;51.902;8.212;2022-07-23T01:22:53;101222.38;;;19.31
71630;BMP280;59479;51.902;8.212;2022-07-23T01:25:20;101209.75;;;19.28
71630;BMP280;59479;51.902;8.212;2022-07-23T01:27:45;101207.97;;;19.30
71630;BMP280;59479;51.902;8.212;2022-07-23T01:30:11;101203.88;;;19.24
71630;BMP280;59479;51.902;8.212;2022-07-23T01:32:37;101204.53;;;19.31
71630;BMP280;59479;51.902;8.212;2022-07-23T01:35:04;101192.88;;;19.22
71630;BMP280;59479;51.902;8.212;2022-07-23T01:37:29;101189.50;;;19.22
71630;BMP280;59479;51.902;8.212;2022-07-23T01:39:55;101191.06;;;19.26
71630;BMP280;59479;51.902;8.212;2022-07-23T01:42:20;101205.44;;;19.30
71630;BMP280;59479;51.902;8.212;2022-07-23T01:44:45;101188.53;;;19.26
71630;BMP280;59479;51.902;8.212;2022-07-23T01:47:12;101189.50;;;19.22
71630;BMP280;59479;51.902;8.212;2022-07-23T01:49:37;101199.44;;;19.31
71630;BMP280;59479;51.902;8.212;2022-07-23T01:52:03;101202.09;;;19.28
71630;BMP280;59479;51.902;8.212;2022-07-23T01:54:32;101192.78;;;19.25
71630;BMP280;59479;51.902;8.212;2022-07-23T01:56:59;101194.59;;;19.22
71630;BMP280;59479;51.902;8.212;2022-07-23T01:59:26;101194.56;;;19.23
71630;BMP280;59479;51.902;8.212;2022-07-23T02:01:51;101185.19;;;19.24
71630;BMP280;59479;51.902;8.212;2022-07-23T02:04:18;101169.97;;;19.21
71630;BMP280;59479;51.902;8.212;2022-07-23T02:06:43;101163.22;;;19.20
71630;BMP280;59479;51.902;8.212;2022-07-23T02:09:08;101181.06;;;19.20
71630;BMP280;59479;51.902;8.212;2022-07-23T02:11:34;101187.06;;;19.17
71630;BMP280;59479;51.902;8.212;2022-07-23T02:13:59;101198.28;;;19.10
71630;BMP280;59479;51.902;8.212;2022-07-23T02:16:24;101208.41;;;19.13
71630;BMP280;59479;51.902;8.212;2022-07-23T02:18:50;101202.25;;;19.22
71630;BMP280;59479;51.902;8.212;2022-07-23T02:21:15;101193.72;;;19.23
71630;BMP280;59479;51.902;8.212;2022-07-23T02:23:40;101190.34;;;19.21
71630;BMP280;59479;51.902;8.212;2022-07-23T02:26:06;101194.56;;;19.23
71630;BMP280;59479;51.902;8.212;2022-07-23T02:28:31;101197.13;;;19.22
71630;BMP280;59479;51.902;8.212;2022-07-23T02:30:56;101190.28;;;19.24
71630;BMP280;59479;51.902;8.212;2022-07-23T02:33:22;101191.97;;;19.25
71630;BMP280;59479;51.902;8.212;2022-07-23T02:35:47;101186.19;;;19.18
71630;BMP280;59479;51.902;8.212;2022-07-23T02:38:12;101191.97;;;19.25
71630;BMP280;59479;51.902;8.212;2022-07-23T02:40:38;101207.38;;;19.20
71630;BMP280;59479;51.902;8.212;2022-07-23T02:43:03;101204.00;;;19.20
71630;BMP280;59479;51.902;8.212;2022-07-23T02:45:29;101206.53;;;19.20
71630;BMP280;59479;51.902;8.212;2022-07-23T02:47:54;101193.94;;;19.14
71630;BMP280;59479;51.902;8.212;2022-07-23T02:50:19;101189.75;;;19.13
71630;BMP280;59479;51.902;8.212;2022-07-23T02:52:45;101185.59;;;19.09
71630;BMP280;59479;51.902;8.212;2022-07-23T02:55:10;101193.13;;;19.13
71630;BMP280;59479;51.902;8.212;2022-07-23T02:57:36;101193.91;;;19.15
71630;BMP280;59479;51.902;8.212;2022-07-23T03:00:02;101192.28;;;19.13
71630;BMP280;59479;51.902;8.212;2022-07-23T03:02:28;101196.53;;;19.12
71630;BMP280;59479;51.902;8.212;2022-07-23T03:04:53;101186.44;;;19.09
71630;BMP280;59479;51.902;8.212;2022-07-23T03:07:18;101190.72;;;19.07
71630;BMP280;59479;51.902;8.212;2022-07-23T03:09:44;101188.28;;;19.04
71630;BMP280;59479;51.902;8.212;2022-07-23T03:12:09;101193.31;;;19.06
71630;BMP280;59479;51.902;8.212;2022-07-23T03:14:34;101193.31;;;19.06
71630;BMP280;59479;51.902;8.212;2022-07-23T03:17:00;101195.09;;;19.02
71630;BMP280;59479;51.902;8.212;2022-07-23T03:19:26;101188.59;;;18.91
71630;BMP280;59479;51.902;8.212;2022-07-23T03:21:51;101188.63;;;18.90
71630;BMP280;59479;51.902;8.212;2022-07-23T03:24:17;101187.34;;;18.72
71630;BMP280;59479;51.902;8.212;2022-07-23T03:26:43;101180.31;;;18.82
71630;BMP280;59479;51.902;8.212;2022-07-23T03:29:09;101190.44;;;18.85
71630;BMP280;59479;51.902;8.212;2022-07-23T03:31:34;101186.94;;;18.89
71630;BMP280;59479;51.902;8.212;2022-07-23T03:33:59;101187.81;;;18.88
71630;BMP280;59479;51.902;8.212;2022-07-23T03:36:25;101191.19;;;18.88
71630;BMP280;59479;51.902;8.212;2022-07-23T03:38:51;101188.59;;;18.91
71630;BMP280;59479;51.902;8.212;2022-07-23T03:41:18;101190.31;;;18.89
71630;BMP280;59479;51.902;8.212;2022-07-23T03:43:43;101185.34;;;18.85
71630;BMP280;59479;51.902;8.212;2022-07-23T03:46:08;101181.16;;;18.82
71630;BMP280;59479;51.902;8.212;2022-07-23T03:48:34;101185.38;;;18.83
71630;BMP280;59479;51.902;8.212;2022-07-23T03:51:00;101187.13;;;18.81
71630;BMP280;59479;51.902;8.212;2022-07-23T03:53:25;101189.72;;;18.80
71630;BMP280;59479;51.902;8.212;2022-07-23T03:55:50;101183.78;;;18.79
71630;BMP280;59479;51.902;8.212;2022-07-23T03:58:16;101189.75;;;18.78
71630;BMP280;59479;51.902;8.212;2022-07-23T04:00:41;101188.03;;;18.79
71630;BMP280;59479;51.902;8.212;2022-07-23T04:03:06;101184.72;;;18.75
71630;BMP280;59479;51.902;8.212;2022-07-23T04:05:32;101189.16;;;18.67
71630;BMP280;59479;51.902;8.212;2022-07-23T04:07:57;101187.47;;;18.68
71630;BMP280;59479;51.902;8.212;2022-07-23T04:10:22;101183.22;;;18.68
71630;BMP280;59479;51.902;8.212;2022-07-23T04:12:48;101201.06;;;18.67
71630;BMP280;59479;51.902;8.212;2022-07-23T04:15:13;101201.09;;;18.65
71630;BMP280;59479;51.902;8.212;2022-07-23T04:17:39;101203.63;;;18.65
71630;BMP280;59479;51.902;8.212;2022-07-23T04:20:05;101197.72;;;18.65
71630;BMP280;59479;51.902;8.212;2022-07-23T04:22:30;101195.22;;;18.63
71630;BMP280;59479;51.902;8.212;2022-07-23T04:24:55;101198.63;;;18.62
71630;BMP280;59479;51.902;8.212;2022-07-23T04:27:21;101194.31;;;18.66
71630;BMP280;59479;51.902;8.212;2022-07-23T04:29:46;101195.25;;;18.62
71630;BMP280;59479;51.902;8.212;2022-07-23T04:32:11;101195.25;;;18.62
71630;BMP280;59479;51.902;8.212;2022-07-23T04:34:37;101197.78;;;18.62
71630;BMP280;59479;51.902;8.212;2022-07-23T04:37:02;101195.34;;;18.57
71630;BMP280;59479;51.902;8.212;2022-07-23T04:39:27;101197.84;;;18.59
71630;BMP280;59479;51.902;8.212;2022-07-23T04:41:52;101202.91;;;18.60
71630;BMP280;59479;51.902;8.212;2022-07-23T04:44:18;101203.84;;;18.58
71630;BMP280;59479;51.902;8.212;2022-07-23T04:46:43;101209.75;;;18.58
71630;BMP280;59479;51.902;8.212;2022-07-23T04:49:08;101209.00;;;18.55
71630;BMP280;59479;51.902;8.212;2022-07-23T04:51:34;101208.94;;;18.58
71630;BMP280;59479;51.902;8.212;2022-07-23T04:53:59;101214.00;;;18.59
71630;BMP280;59479;51.902;8.212;2022-07-23T04:56:24;101203.78;;;18.61
71630;BMP280;59479;51.902;8.212;2022-07-23T04:58:50;101213.88;;;18.62
71630;BMP280;59479;51.902;8.212;2022-07-23T05:01:15;101219.81;;;18.64
71630;BMP280;59479;51.902;8.212;2022-07-23T05:03:40;101227.53;;;18.60
71630;BMP280;59479;51.902;8.212;2022-07-23T05:06:06;101222.50;;;18.58
71630;BMP280;59479;51.902;8.212;2022-07-23T05:08:31;101229.28;;;18.58
71630;BMP280;59479;51.902;8.212;2022-07-23T05:10:56;101222.50;;;18.58
71630;BMP280;59479;51.902;8.212;2022-07-23T05:13:22;101225.03;;;18.58
71630;BMP280;59479;51.902;8.212;2022-07-23T05:15:47;101214.00;;;18.59
71630;BMP280;59479;51.902;8.212;2022-07-23T05:18:13;101213.13;;;18.59
71630;BMP280;59479;51.902;8.212;2022-07-23T05:20:38;101206.22;;;18.64
71630;BMP280;59479;51.902;8.212;2022-07-23T05:23:04;101205.31;;;18.66
71630;BMP280;59479;51.902;8.212;2022-07-23T05:25:29;101214.69;;;18.66
71630;BMP280;59479;51.902;8.212;2022-07-23T05:27:54;101218.72;;;18.74
71630;BMP280;59479;51.902;8.212;2022-07-23T05:30:20;101210.19;;;18.75
71630;BMP280;59479;51.902;8.212;2022-07-23T05:32:45;101216.06;;;18.77
71630;BMP280;59479;51.902;8.212;2022-07-23T05:35:11;101216.91;;;18.79
71630;BMP280;59479;51.902;8.212;2022-07-23T05:37:36;101209.13;;;18.84
71630;BMP280;59479;51.902;8.212;2022-07-23T05:40:07;101228.50;;;18.89
71630;BMP280;59479;51.902;8.212;2022-07-23T05:42:51;101231.03;;;18.91
71630;BMP280;59479;51.902;8.212;2022-07-23T05:47:03;101223.34;;;18.92
71630;BMP280;59479;51.902;8.212;2022-07-23T05:54:11;101233.50;;;18.93
71630;BMP280;59479;51.902;8.212;2022-07-23T06:04:43;101244.44;;;19.00
71630;BMP280;59479;51.902;8.212;2022-07-23T06:12:36;101251.09;;;19.04
71630;BMP280;59479;51.902;8.212;2022-07-23T06:15:02;101247.47;;;19.14
71630;BMP280;59479;51.902;8.212;2022-07-23T06:17:28;101247.44;;;19.15
71630;BMP280;59479;51.902;8.212;2022-07-23T06:19:54;101250.66;;;19.22
71630;BMP280;59479;51.902;8.212;2022-07-23T06:22:20;101251.53;;;19.21
71630;BMP280;59479;51.902;8.212;2022-07-23T06:24:45;101252.25;;;19.26
71630;BMP280;59479;51.902;8.212;2022-07-23T06:27:10;101254.56;;;19.35
71630;BMP280;59479;51.902;8.212;2022-07-23T06:29:36;101244.44;;;19.32
71630;BMP280;59479;51.902;8.212;2022-07-23T06:32:07;101251.97;;;19.38
71630;BMP280;59479;51.902;8.212;2022-07-23T06:34:41;101264.53;;;19.43
71630;BMP280;59479;51.902;8.212;2022-07-23T06:37:13;101257.00;;;19.39
71630;BMP280;59479;51.902;8.212;2022-07-23T06:39:41;101258.56;;;19.44
71630;BMP280;59479;51.902;8.212;2022-07-23T06:42:06;101263.56;;;19.47
71630;BMP280;59479;51.902;8.212;2022-07-23T06:44:38;101260.03;;;19.53
71630;BMP280;59479;51.902;8.212;2022-07-23T06:47:16;101264.19;;;19.55
71630;BMP280;59479;51.902;8.212;2022-07-23T06:49:48;101274.38;;;19.57
71630;BMP280;59479;51.902;8.212;2022-07-23T06:52:42;101284.53;;;19.58
71630;BMP280;59479;51.902;8.212;2022-07-23T06:55:10;101274.47;;;19.52
71630;BMP280;59479;51.902;8.212;2022-07-23T07:02:19;101275.88;;;19.32
71630;BMP280;59479;51.902;8.212;2022-07-23T07:16:52;101291.19;;;19.64
71630;BMP280;59479;51.902;8.212;2022-07-23T07:20:08;101291.84;;;19.70
71630;BMP280;59479;51.902;8.212;2022-07-23T07:33:19;101292.91;;;19.95
71630;BMP280;59479;51.902;8.212;2022-07-23T07:43:44;101310.72;;;19.96
71630;BMP280;59479;51.902;8.212;2022-07-23T08:04:31;101314.38;;;20.17
71630;BMP280;59479;51.902;8.212;2022-07-23T08:11:26;101319.09;;;20.30
71630;BMP280;59479;51.902;8.212;2022-07-23T08:24:13;101321.19;;;20.46
71630;BMP280;59479;51.902;8.212;2022-07-23T08:28:05;101331.03;;;20.58
71630;BMP280;59479;51.902;8.212;2022-07-23T08:41:22;101334.72;;;20.77
71630;BMP280;59479;51.902;8.212;2022-07-23T08:48:07;101334.94;;;20.71
71630;BMP280;59479;51.902;8.212;2022-07-23T09:29:39;101335.69;;;21.27
71630;BMP280;59479;51.902;8.212;2022-07-23T09:39:21;101349.25;;;21.55
71630;BMP280;59479;51.902;8.212;2022-07-23T09:41:56;101343.72;;;21.41
71630;BMP280;59479;51.902;8.212;2022-07-23T09:44:57;101342.25;;;21.60
71630;BMP280;59479;51.902;8.212;2022-07-23T09:47:39;101341.44;;;21.59
71630;BMP280;59479;51.902;8.212;2022-07-23T09:50:28;101343.84;;;21.64
71630;BMP280;59479;51.902;8.212;2022-07-23T09:53:31;101335.06;;;21.71
71630;BMP280;59479;51.902;8.212;2022-07-23T09:58:55;101339.91;;;21.78
71630;BMP280;59479;51.902;8.212;2022-07-23T10:02:21;101338.84;;;21.84
71630;BMP280;59479;51.902;8.212;2022-07-23T10:04:54;101343.16;;;21.83
71630;BMP280;59479;51.902;8.212;2022-07-23T10:07:21;101339.19;;;21.75
71630;BMP280;59479;51.902;8.212;2022-07-23T10:09:48;101337.44;;;21.75
71630;BMP280;59479;51.902;8.212;2022-07-23T10:12:15;101332.97;;;21.82
71630;BMP280;59479;51.902;8.212;2022-07-23T10:14:59;101339.97;;;21.77
71630;BMP280;59479;51.902;8.212;2022-07-23T10:17:25;101341.69;;;21.76
71630;BMP280;59479;51.902;8.212;2022-07-23T10:19:50;101343.25;;;21.80
71630;BMP280;59479;51.902;8.212;2022-07-23T10:22:33;101339.38;;;21.69
71630;BMP280;59479;51.902;8.212;2022-07-23T10:33:54;101330.09;;;22.13
71630;BMP280;59479;51.902;8.212;2022-07-23T10:39:08;101330.72;;;22.21
71630;BMP280;59479;51.902;8.212;2022-07-23T10:41:41;101324.56;;;22.25
71630;BMP280;59479;51.902;8.212;2022-07-23T10:44:16;101334.50;;;22.34
71630;BMP280;59479;51.902;8.212;2022-07-23T10:46:59;101328.25;;;22.41
71630;BMP280;59479;51.902;8.212;2022-07-23T10:50:25;101324.25;;;22.34
71630;BMP280;59479;51.902;8.212;2022-07-23T10:53:13;101324.47;;;22.51
71630;BMP280;59479;51.902;8.212;2022-07-23T10:55:46;101325.19;;;22.54
71630;BMP280;59479;51.902;8.212;2022-07-23T11:01:36;101322.88;;;22.47
71630;BMP280;59479;51.902;8.212;2022-07-23T11:04:08;101328.63;;;22.53
71630;BMP280;59479;51.902;8.212;2022-07-23T11:09:25;101328.63;;;22.53
71630;BMP280;59479;51.902;8.212;2022-07-23T11:15:09;101321.38;;;22.64
71630;BMP280;59479;51.902;8.212;2022-07-23T11:20:14;101327.31;;;22.65
71630;BMP280;59479;51.902;8.212;2022-07-23T11:25:13;101319.38;;;22.93
71630;BMP280;59479;51.902;8.212;2022-07-23T11:27:43;101320.13;;;22.95
71630;BMP280;59479;51.902;8.212;2022-07-23T11:35:35;101320.56;;;23.06
71630;BMP280;59479;51.902;8.212;2022-07-23T11:40:34;101314.59;;;23.06
71630;BMP280;59479;51.902;8.212;2022-07-23T11:43:02;101326.44;;;23.08
71630;BMP280;59479;51.902;8.212;2022-07-23T11:45:43;101324.31;;;23.19
71630;BMP280;59479;51.902;8.212;2022-07-23T11:48:23;101308.34;;;23.32
71630;BMP280;59479;51.902;8.212;2022-07-23T11:50:51;101321.63;;;23.42
71630;BMP280;59479;51.902;8.212;2022-07-23T11:53:24;101313.91;;;23.42
71630;BMP280;59479;51.902;8.212;2022-07-23T11:56:29;101310.66;;;23.58
71630;BMP280;59479;51.902;8.212;2022-07-23T11:59:10;101313.44;;;23.54
71630;BMP280;59479;51.902;8.212;2022-07-23T12:01:55;101315.34;;;23.68
71630;BMP280;59479;51.902;8.212;2022-07-23T12:04:21;101313.72;;;23.67
71630;BMP280;59479;51.902;8.212;2022-07-23T12:06:55;101312.78;;;23.68
71630;BMP280;59479;51.902;8.212;2022-07-23T12:09:21;101305.47;;;23.79
71630;BMP280;59479;51.902;8.212;2022-07-23T12:14:56;101300.84;;;23.87
71630;BMP280;59479;51.902;8.212;2022-07-23T12:17:28;101305.44;;;23.99
71630;BMP280;59479;51.902;8.212;2022-07-23T12:19:55;101299.88;;;24.08
71630;BMP280;59479;51.902;8.212;2022-07-23T12:22:33;101297.56;;;24.04
71630;BMP280;59479;51.902;8.212;2022-07-23T12:25:21;101300.88;;;24.06
71630;BMP280;59479;51.902;8.212;2022-07-23T12:28:18;101306.06;;;24.04
71630;BMP280;59479;51.902;8.212;2022-07-23T12:30:48;101306.66;;;24.10
71630;BMP280;59479;51.902;8.212;2022-07-23T12:35:56;101301.78;;;24.23
71630;BMP280;59479;51.902;8.212;2022-07-23T12:38:25;101306.78;;;24.26
71630;BMP280;59479;51.902;8.212;2022-07-23T12:43:35;101305.44;;;24.37
71630;BMP280;59479;51.902;8.212;2022-07-23T12:46:19;101298.91;;;24.30
71630;BMP280;59479;51.902;8.212;2022-07-23T12:51:20;101311.28;;;24.41
71630;BMP280;59479;51.902;8.212;2022-07-23T12:56:27;101304.88;;;24.49
71630;BMP280;59479;51.902;8.212;2022-07-23T12:58:55;101306.13;;;24.59
71630;BMP280;59479;51.902;8.212;2022-07-23T13:04:02;101308.44;;;24.63
71630;BMP280;59479;51.902;8.212;2022-07-23T13:06:32;101309.84;;;24.70
71630;BMP280;59479;51.902;8.212;2022-07-23T13:08:58;101310.50;;;24.92
71630;BMP280;59479;51.902;8.212;2022-07-23T13:11:24;101313.13;;;25.09
71630;BMP280;59479;51.902;8.212;2022-07-23T13:13:49;101304.41;;;25.11
71630;BMP280;59479;51.902;8.212;2022-07-23T13:16:15;101309.81;;;25.07
71630;BMP280;59479;51.902;8.212;2022-07-23T13:18:40;101301.69;;;25.14
71630;BMP280;59479;51.902;8.212;2022-07-23T13:21:06;101301.16;;;25.25
71630;BMP280;59479;51.902;8.212;2022-07-23T13:23:31;101301.91;;;25.27
71630;BMP280;59479;51.902;8.212;2022-07-23T13:25:56;101311.69;;;25.20
71630;BMP280;59479;51.902;8.212;2022-07-23T13:28:25;101308.59;;;25.31
71630;BMP280;59479;51.902;8.212;2022-07-23T13:30:51;101305.69;;;25.36
71630;BMP280;59479;51.902;8.212;2022-07-23T13:33:26;101308.19;;;25.38
71630;BMP280;59479;51.902;8.212;2022-07-23T13:36:00;101305.78;;;25.35
71630;BMP280;59479;51.902;8.212;2022-07-23T13:38:26;101304.34;;;25.30
71630;BMP280;59479;51.902;8.212;2022-07-23T13:40:54;101309.56;;;25.28
71630;BMP280;59479;51.902;8.212;2022-07-23T13:43:22;101310.03;;;25.36
71630;BMP280;59479;51.902;8.212;2022-07-23T13:45:48;101300.94;;;25.46
71630;BMP280;59479;51.902;8.212;2022-07-23T13:48:14;101302.50;;;25.48
71630;BMP280;59479;51.902;8.212;2022-07-23T13:50:40;101306.16;;;25.44
71630;BMP280;59479;51.902;8.212;2022-07-23T13:53:08;101298.38;;;25.46
71630;BMP280;59479;51.902;8.212;2022-07-23T13:55:44;101303.59;;;25.44
71630;BMP280;59479;51.902;8.212;2022-07-23T13:58:10;101292.84;;;25.36
71630;BMP280;59479;51.902;8.212;2022-07-23T14:00:50;101304.03;;;25.52
71630;BMP280;59479;51.902;8.212;2022-07-23T14:03:16;101299.97;;;25.65
71630;BMP280;59479;51.902;8.212;2022-07-23T14:05:42;101299.19;;;25.63
71630;BMP280;59479;51.902;8.212;2022-07-23T14:08:08;101298.56;;;25.58
71630;BMP280;59479;51.902;8.212;2022-07-23T14:10:33;101305.34;;;25.44
71630;BMP280;59479;51.902;8.212;2022-07-23T14:13:07;101294.97;;;25.29
71630;BMP280;59479;51.902;8.212;2022-07-23T14:15:38;101299.25;;;25.45
71630;BMP280;59479;51.902;8.212;2022-07-23T14:18:05;101297.00;;;25.56
71630;BMP280;59479;51.902;8.212;2022-07-23T14:20:31;101298.75;;;25.72
71630;BMP280;59479;51.902;8.212;2022-07-23T14:22:56;101299.19;;;25.63
71630;BMP280;59479;51.902;8.212;2022-07-23T14:25:25;101300.47;;;25.72
71630;BMP280;59479;51.902;8.212;2022-07-23T14:27:51;101301.16;;;25.75
71630;BMP280;59479;51.902;8.212;2022-07-23T14:30:16;101300.38;;;25.56
71630;BMP280;59479;51.902;8.212;2022-07-23T14:32:45;101302.06;;;25.74
71630;BMP280;59479;51.902;8.212;2022-07-23T14:35:10;101299.94;;;25.82
71630;BMP280;59479;51.902;8.212;2022-07-23T14:37:35;101305.25;;;25.79
71630;BMP280;59479;51.902;8.212;2022-07-23T14:40:03;101298.78;;;25.87
71630;BMP280;59479;51.902;8.212;2022-07-23T14:42:29;101295.97;;;25.92
71630;BMP280;59479;51.902;8.212;2022-07-23T14:44:54;101299.53;;;25.89
71630;BMP280;59479;51.902;8.212;2022-07-23T14:47:19;101301.88;;;25.94
71630;BMP280;59479;51.902;8.212;2022-07-23T14:49:45;101301.50;;;25.84
71630;BMP280;59479;51.902;8.212;2022-07-23T14:52:10;101305.16;;;25.80
71630;BMP280;59479;51.902;8.212;2022-07-23T14:54:35;101299.69;;;25.86
71630;BMP280;59479;51.902;8.212;2022-07-23T14:57:01;101300.19;;;25.93
71630;BMP280;59479;51.902;8.212;2022-07-23T14:59:28;101297.75;;;26.07
71630;BMP280;59479;51.902;8.212;2022-07-23T15:01:53;101298.06;;;26.01
71630;BMP280;59479;51.902;8.212;2022-07-23T15:04:19;101293.09;;;26.13
71630;BMP280;59479;51.902;8.212;2022-07-23T15:06:48;101296.59;;;26.12
71630;BMP280;59479;51.902;8.212;2022-07-23T15:09:13;101291.00;;;26.19
71630;BMP280;59479;51.902;8.212;2022-07-23T15:11:39;101289.50;;;26.32
71630;BMP280;59479;51.902;8.212;2022-07-23T15:14:04;101279.84;;;26.36
71630;BMP280;59479;51.902;8.212;2022-07-23T15:16:30;101288.97;;;26.41
71630;BMP280;59479;51.902;8.212;2022-07-23T15:18:55;101281.97;;;26.43
71630;BMP280;59479;51.902;8.212;2022-07-23T15:21:24;101293.66;;;26.50
71630;BMP280;59479;51.902;8.212;2022-07-23T15:23:50;101287.13;;;26.43
71630;BMP280;59479;51.902;8.212;2022-07-23T15:26:18;101291.72;;;26.54
71630;BMP280;59479;51.902;8.212;2022-07-23T15:28:44;101294.63;;;26.48
71630;BMP280;59479;51.902;8.212;2022-07-23T15:31:09;101292.72;;;26.51
71630;BMP280;59479;51.902;8.212;2022-07-23T15:33:35;101287.97;;;26.59
71630;BMP280;59479;51.902;8.212;2022-07-23T15:36:01;101294.97;;;26.57
71630;BMP280;59479;51.902;8.212;2022-07-23T15:38:27;101286.81;;;26.64
71630;BMP280;59479;51.902;8.212;2022-07-23T15:41:23;101286.78;;;26.80
71630;BMP280;59479;51.902;8.212;2022-07-23T15:43:50;101279.59;;;26.85
71630;BMP280;59479;51.902;8.212;2022-07-23T15:46:16;101283.47;;;26.78
71630;BMP280;59479;51.902;8.212;2022-07-23T15:48:42;101292.97;;;26.62
71630;BMP280;59479;51.902;8.212;2022-07-23T15:51:23;101278.66;;;26.72
71630;BMP280;59479;51.902;8.212;2022-07-23T15:53:48;101280.63;;;26.82
71630;BMP280;59479;51.902;8.212;2022-07-23T15:56:16;101287.13;;;26.89
71630;BMP280;59479;51.902;8.212;2022-07-23T15:58:42;101279.97;;;26.79
71630;BMP280;59479;51.902;8.212;2022-07-23T16:01:08;101287.94;;;26.90
71630;BMP280;59479;51.902;8.212;2022-07-23T16:03:34;101294.06;;;26.89
71630;BMP280;59479;51.902;8.212;2022-07-23T16:06:00;101290.13;;;26.97
71630;BMP280;59479;51.902;8.212;2022-07-23T16:08:26;101285.13;;;26.94
71630;BMP280;59479;51.902;8.212;2022-07-23T16:10:52;101288.44;;;26.96
71630;BMP280;59479;51.902;8.212;2022-07-23T16:13:29;101292.63;;;26.99
71630;BMP280;59479;51.902;8.212;2022-07-23T16:15:54;101284.31;;;26.94
71630;BMP280;59479;51.902;8.212;2022-07-23T16:18:22;101280.69;;;26.96
71630;BMP280;59479;51.902;8.212;2022-07-23T16:24:05;101274.47;;;27.00
71630;BMP280;59479;51.902;8.212;2022-07-23T16:26:31;101271.50;;;26.77
71630;BMP280;59479;51.902;8.212;2022-07-23T16:28:56;101278.22;;;26.95
71630;BMP280;59479;51.902;8.212;2022-07-23T16:31:22;101277.47;;;26.93
71630;BMP280;59479;51.902;8.212;2022-07-23T16:33:47;101278.41;;;26.92
71630;BMP280;59479;51.902;8.212;2022-07-23T16:36:15;101273.38;;;27.04
71630;BMP280;59479;51.902;8.212;2022-07-23T16:38:41;101276.97;;;27.02
71630;BMP280;59479;51.902;8.212;2022-07-23T16:41:06;101275.47;;;26.98
71630;BMP280;59479;51.902;8.212;2022-07-23T16:43:33;101278.22;;;26.95
71630;BMP280;59479;51.902;8.212;2022-07-23T16:46:01;101274.28;;;27.03
71630;BMP280;59479;51.902;8.212;2022-07-23T16:48:27;101275.78;;;27.07
71630;BMP280;59479;51.902;8.212;2022-07-23T16:50:52;101274.75;;;27.09
71630;BMP280;59479;51.902;8.212;2022-07-23T16:53:18;101271.00;;;27.15
71630;BMP280;59479;51.902;8.212;2022-07-23T16:55:43;101276.25;;;27.13
71630;BMP280;59479;51.902;8.212;2022-07-23T16:58:09;101279.34;;;27.05
71630;BMP280;59479;51.902;8.212;2022-07-23T17:00:35;101285.78;;;26.98
71630;BMP280;59479;51.902;8.212;2022-07-23T17:03:00;101276.78;;;27.05
71630;BMP280;59479;51.902;8.212;2022-07-23T17:05:28;101280.28;;;27.04
71630;BMP280;59479;51.902;8.212;2022-07-23T17:07:56;101287.34;;;26.85
71630;BMP280;59479;51.902;8.212;2022-07-23T17:10:22;101292.63;;;26.83
71630;BMP280;59479;51.902;8.212;2022-07-23T17:12:49;101286.47;;;26.86
71630;BMP280;59479;51.902;8.212;2022-07-23T17:15:17;101281.63;;;26.95
71630;BMP280;59479;51.902;8.212;2022-07-23T17:17:42;101288.63;;;26.93
71630;BMP280;59479;51.902;8.212;2022-07-23T17:20:08;101296.25;;;26.95
71630;BMP280;59479;51.902;8.212;2022-07-23T17:22:36;101298.34;;;27.04
71630;BMP280;59479;51.902;8.212;2022-07-23T17:25:03;101294.19;;;27.01
71630;BMP280;59479;51.902;8.212;2022-07-23T17:27:34;101303.31;;;27.06
71630;BMP280;59479;51.902;8.212;2022-07-23T17:30:00;101293.97;;;26.90
71630;BMP280;59479;51.902;8.212;2022-07-23T17:32:27;101293.94;;;26.75